sensor_id;sensor_type;location;lat;lon;timestamp;P1;durP1;ratioP1;P2;durP2;ratioP2
70605;SDS011;58173;52.500;5.494;2023-07-24T00:00:38;8.45;;;4.05;;
70605;SDS011;58173;52.500;5.494;2023-07-24T00:03:06;9.98;;;3.80;;
70605;SDS011;58173;52.500;5.494;2023-07-24T00:05:34;9.77;;;4.38;;
70605;SDS011;58173;52.500;5.494;2023-07-24T00:08:02;10.05;;;3.80;;
70605;SDS011;58173;52.500;5.494;2023-07-24T00:10:31;10.30;;;3.75;;
70605;SDS011;58173;52.500;5.494;2023-07-24T00:13:09;8.27;;;3.90;;
70605;SDS011;58173;52.500;5.494;2023-07-24T00:15:38;9.57;;;4.00;;
70605;SDS011;58173;52.500;5.494;2023-07-24T00:18:06;8.80;;;3.90;;
70605;SDS011;58173;52.500;5.494;2023-07-24T00:20:33;9.13;;;3.70;;
70605;SDS011;58173;52.500;5.494;2023-07-24T00:23:00;9.57;;;4.10;;
70605;SDS011;58173;52.500;5.494;2023-07-24T00:25:28;11.07;;;4.72;;
70605;SDS011;58173;52.500;5.494;2023-07-24T00:27:56;8.90;;;3.88;;
70605;SDS011;58173;52.500;5.494;2023-07-24T00:30:24;8.50;;;4.03;;
70605;SDS011;58173;52.500;5.494;2023-07-24T00:32:51;9.60;;;4.18;;
70605;SDS011;58173;52.500;5.494;2023-07-24T00:35:18;9.90;;;3.85;;
70605;SDS011;58173;52.500;5.494;2023-07-24T00:37:46;9.02;;;4.22;;
70605;SDS011;58173;52.500;5.494;2023-07-24T00:40:16;9.05;;;4.18;;
70605;SDS011;58173;52.500;5.494;2023-07-24T00:42:47;9.07;;;3.88;;
70605;SDS011;58173;52.500;5.494;2023-07-24T00:45:15;10.02;;;3.92;;
70605;SDS011;58173;52.500;5.494;2023-07-24T00:47:42;10.45;;;4.32;;
70605;SDS011;58173;52.500;5.494;2023-07-24T00:50:10;10.15;;;4.03;;
70605;SDS011;58173;52.500;5.494;2023-07-24T00:52:38;8.38;;;4.00;;
70605;SDS011;58173;52.500;5.494;2023-07-24T00:55:06;9.00;;;3.85;;
70605;SDS011;58173;52.500;5.494;2023-07-24T00:57:35;8.40;;;4.00;;
70605;SDS011;58173;52.500;5.494;2023-07-24T01:00:03;10.05;;;3.90;;
70605;SDS011;58173;52.500;5.494;2023-07-24T01:02:30;9.30;;;4.35;;
70605;SDS011;58173;52.500;5.494;2023-07-24T01:04:58;8.98;;;3.90;;
70605;SDS011;58173;52.500;5.494;2023-07-24T01:07:26;9.40;;;3.90;;
70605;SDS011;58173;52.500;5.494;2023-07-24T01:09:53;9.57;;;4.28;;
70605;SDS011;58173;52.500;5.494;2023-07-24T01:12:39;8.15;;;3.85;;
70605;SDS011;58173;52.500;5.494;2023-07-24T01:15:20;9.50;;;3.85;;
70605;SDS011;58173;52.500;5.494;2023-07-24T01:17:55;9.65;;;4.55;;
70605;SDS011;58173;52.500;5.494;2023-07-24T01:20:25;9.55;;;4.40;;
70605;SDS011;58173;52.500;5.494;2023-07-24T01:23:13;9.02;;;4.28;;
70605;SDS011;58173;52.500;5.494;2023-07-24T01:25:50;9.50;;;4.47;;
70605;SDS011;58173;52.500;5.494;2023-07-24T01:28:20;8.75;;;4.38;;
70605;SDS011;58173;52.500;5.494;2023-07-24T01:30:48;10.27;;;4.90;;
70605;SDS011;58173;52.500;5.494;2023-07-24T01:33:15;10.50;;;4.80;;
70605;SDS011;58173;52.500;5.494;2023-07-24T01:35:46;10.02;;;4.78;;
70605;SDS011;58173;52.500;5.494;2023-07-24T01:38:16;10.25;;;4.22;;
70605;SDS011;58173;52.500;5.494;2023-07-24T01:40:44;9.95;;;4.45;;
70605;SDS011;58173;52.500;5.494;2023-07-24T01:43:12;13.30;;;4.20;;
70605;SDS011;58173;52.500;5.494;2023-07-24T01:45:40;9.13;;;4.30;;
70605;SDS011;58173;52.500;5.494;2023-07-24T01:48:13;9.18;;;4.32;;
70605;SDS011;58173;52.500;5.494;2023-07-24T01:50:41;9.80;;;4.45;;
70605;SDS011;58173;52.500;5.494;2023-07-24T01:53:09;10.40;;;4.70;;
70605;SDS011;58173;52.500;5.494;2023-07-24T01:55:36;11.65;;;4.45;;
70605;SDS011;58173;52.500;5.494;2023-07-24T01:58:04;9.90;;;4.35;;
70605;SDS011;58173;52.500;5.494;2023-07-24T02:00:31;9.82;;;4.53;;
70605;SDS011;58173;52.500;5.494;2023-07-24T02:02:58;10.48;;;4.32;;
70605;SDS011;58173;52.500;5.494;2023-07-24T02:05:26;8.27;;;4.03;;
70605;SDS011;58173;52.500;5.494;2023-07-24T02:07:54;9.15;;;4.07;;
70605;SDS011;58173;52.500;5.494;2023-07-24T02:10:22;8.88;;;4.15;;
70605;SDS011;58173;52.500;5.494;2023-07-24T02:12:49;9.18;;;4.25;;
70605;SDS011;58173;52.500;5.494;2023-07-24T02:15:16;8.95;;;3.92;;
70605;SDS011;58173;52.500;5.494;2023-07-24T02:17:44;9.77;;;4.53;;
70605;SDS011;58173;52.500;5.494;2023-07-24T02:20:12;8.60;;;4.18;;
70605;SDS011;58173;52.500;5.494;2023-07-24T02:22:40;10.10;;;4.43;;
70605;SDS011;58173;52.500;5.494;2023-07-24T02:25:08;10.38;;;4.47;;
70605;SDS011;58173;52.500;5.494;2023-07-24T02:27:35;10.85;;;4.20;;
70605;SDS011;58173;52.500;5.494;2023-07-24T02:30:02;8.95;;;3.92;;
70605;SDS011;58173;52.500;5.494;2023-07-24T02:32:30;12.27;;;4.43;;
70605;SDS011;58173;52.500;5.494;2023-07-24T02:34:59;10.73;;;4.07;;
70605;SDS011;58173;52.500;5.494;2023-07-24T02:37:27;9.07;;;4.32;;
70605;SDS011;58173;52.500;5.494;2023-07-24T02:39:55;8.50;;;4.15;;
70605;SDS011;58173;52.500;5.494;2023-07-24T02:42:23;9.73;;;4.40;;
70605;SDS011;58173;52.500;5.494;2023-07-24T02:44:51;8.88;;;3.97;;
70605;SDS011;58173;52.500;5.494;2023-07-24T02:47:20;11.32;;;4.40;;
70605;SDS011;58173;52.500;5.494;2023-07-24T02:49:47;10.10;;;4.32;;
70605;SDS011;58173;52.500;5.494;2023-07-24T02:52:15;10.40;;;4.30;;
70605;SDS011;58173;52.500;5.494;2023-07-24T02:54:42;9.90;;;4.30;;
70605;SDS011;58173;52.500;5.494;2023-07-24T02:57:09;10.13;;;4.30;;
70605;SDS011;58173;52.500;5.494;2023-07-24T02:59:37;8.48;;;4.05;;
70605;SDS011;58173;52.500;5.494;2023-07-24T03:02:04;8.65;;;4.03;;
70605;SDS011;58173;52.500;5.494;2023-07-24T03:04:32;9.48;;;4.35;;
70605;SDS011;58173;52.500;5.494;2023-07-24T03:07:00;12.15;;;4.80;;
70605;SDS011;58173;52.500;5.494;2023-07-24T03:09:27;10.15;;;4.38;;
70605;SDS011;58173;52.500;5.494;2023-07-24T03:11:55;11.65;;;4.38;;
70605;SDS011;58173;52.500;5.494;2023-07-24T03:14:23;10.15;;;4.68;;
70605;SDS011;58173;52.500;5.494;2023-07-24T03:16:52;10.32;;;3.90;;
70605;SDS011;58173;52.500;5.494;2023-07-24T03:19:19;10.43;;;4.40;;
70605;SDS011;58173;52.500;5.494;2023-07-24T03:21:48;9.57;;;4.13;;
70605;SDS011;58173;52.500;5.494;2023-07-24T03:24:16;10.52;;;4.50;;
70605;SDS011;58173;52.500;5.494;2023-07-24T03:26:44;12.18;;;4.70;;
70605;SDS011;58173;52.500;5.494;2023-07-24T03:29:11;11.10;;;4.53;;
70605;SDS011;58173;52.500;5.494;2023-07-24T03:31:41;9.60;;;4.55;;
70605;SDS011;58173;52.500;5.494;2023-07-24T03:34:08;11.32;;;4.70;;
70605;SDS011;58173;52.500;5.494;2023-07-24T03:36:35;10.55;;;4.70;;
70605;SDS011;58173;52.500;5.494;2023-07-24T03:39:03;10.98;;;5.03;;
70605;SDS011;58173;52.500;5.494;2023-07-24T03:41:30;11.05;;;4.43;;
70605;SDS011;58173;52.500;5.494;2023-07-24T03:43:58;9.70;;;4.43;;
70605;SDS011;58173;52.500;5.494;2023-07-24T03:46:25;8.95;;;4.00;;
70605;SDS011;58173;52.500;5.494;2023-07-24T03:48:53;10.57;;;4.55;;
70605;SDS011;58173;52.500;5.494;2023-07-24T03:51:21;12.60;;;4.47;;
70605;SDS011;58173;52.500;5.494;2023-07-24T03:53:48;9.10;;;4.20;;
70605;SDS011;58173;52.500;5.494;2023-07-24T03:56:16;10.55;;;4.43;;
70605;SDS011;58173;52.500;5.494;2023-07-24T03:58:45;10.75;;;4.45;;
70605;SDS011;58173;52.500;5.494;2023-07-24T04:01:14;9.80;;;4.70;;
70605;SDS011;58173;52.500;5.494;2023-07-24T04:03:41;10.07;;;4.38;;
70605;SDS011;58173;52.500;5.494;2023-07-24T04:06:21;11.77;;;4.72;;
70605;SDS011;58173;52.500;5.494;2023-07-24T04:08:49;9.93;;;4.50;;
70605;SDS011;58173;52.500;5.494;2023-07-24T04:17:57;10.00;;;4.45;;
70605;SDS011;58173;52.500;5.494;2023-07-24T04:20:27;10.00;;;4.65;;
70605;SDS011;58173;52.500;5.494;2023-07-24T04:22:55;10.00;;;4.57;;
70605;SDS011;58173;52.500;5.494;2023-07-24T04:25:22;11.93;;;4.82;;
70605;SDS011;58173;52.500;5.494;2023-07-24T04:27:50;9.77;;;4.30;;
70605;SDS011;58173;52.500;5.494;2023-07-24T04:30:18;10.90;;;4.38;;
70605;SDS011;58173;52.500;5.494;2023-07-24T04:32:48;11.63;;;4.25;;
70605;SDS011;58173;52.500;5.494;2023-07-24T04:35:16;10.75;;;4.10;;
70605;SDS011;58173;52.500;5.494;2023-07-24T04:37:43;9.45;;;4.10;;
70605;SDS011;58173;52.500;5.494;2023-07-24T04:40:11;10.18;;;4.35;;
70605;SDS011;58173;52.500;5.494;2023-07-24T04:42:39;10.77;;;4.22;;
70605;SDS011;58173;52.500;5.494;2023-07-24T04:45:15;9.15;;;4.00;;
70605;SDS011;58173;52.500;5.494;2023-07-24T04:47:42;8.63;;;3.47;;
70605;SDS011;58173;52.500;5.494;2023-07-24T04:50:09;11.23;;;4.05;;
70605;SDS011;58173;52.500;5.494;2023-07-24T04:52:37;9.98;;;3.78;;
70605;SDS011;58173;52.500;5.494;2023-07-24T04:55:04;11.02;;;3.88;;
70605;SDS011;58173;52.500;5.494;2023-07-24T04:57:32;11.05;;;3.95;;
70605;SDS011;58173;52.500;5.494;2023-07-24T04:59:59;8.93;;;3.85;;
70605;SDS011;58173;52.500;5.494;2023-07-24T05:02:26;11.50;;;3.78;;
70605;SDS011;58173;52.500;5.494;2023-07-24T05:04:56;9.88;;;3.45;;
70605;SDS011;58173;52.500;5.494;2023-07-24T05:07:23;10.80;;;4.03;;
70605;SDS011;58173;52.500;5.494;2023-07-24T05:09:51;10.65;;;3.55;;
70605;SDS011;58173;52.500;5.494;2023-07-24T05:12:18;9.05;;;3.70;;
70605;SDS011;58173;52.500;5.494;2023-07-24T05:14:45;9.55;;;3.85;;
70605;SDS011;58173;52.500;5.494;2023-07-24T05:17:15;9.80;;;3.60;;
70605;SDS011;58173;52.500;5.494;2023-07-24T05:19:42;9.45;;;3.80;;
70605;SDS011;58173;52.500;5.494;2023-07-24T05:22:11;8.65;;;3.60;;
70605;SDS011;58173;52.500;5.494;2023-07-24T05:24:38;12.88;;;4.00;;
70605;SDS011;58173;52.500;5.494;2023-07-24T05:27:09;11.13;;;3.97;;
70605;SDS011;58173;52.500;5.494;2023-07-24T05:36:21;11.32;;;3.72;;
70605;SDS011;58173;52.500;5.494;2023-07-24T05:38:51;10.85;;;3.80;;
70605;SDS011;58173;52.500;5.494;2023-07-24T05:44:19;9.77;;;3.83;;
70605;SDS011;58173;52.500;5.494;2023-07-24T05:46:46;10.32;;;3.60;;
70605;SDS011;58173;52.500;5.494;2023-07-24T05:49:15;10.27;;;3.80;;
70605;SDS011;58173;52.500;5.494;2023-07-24T05:51:45;11.25;;;3.85;;
70605;SDS011;58173;52.500;5.494;2023-07-24T05:54:12;11.43;;;3.58;;
70605;SDS011;58173;52.500;5.494;2023-07-24T05:56:40;10.50;;;3.47;;
70605;SDS011;58173;52.500;5.494;2023-07-24T05:59:07;11.07;;;4.18;;
70605;SDS011;58173;52.500;5.494;2023-07-24T06:01:42;9.90;;;3.50;;
70605;SDS011;58173;52.500;5.494;2023-07-24T06:04:10;13.02;;;3.83;;
70605;SDS011;58173;52.500;5.494;2023-07-24T06:07:29;11.65;;;3.67;;
70605;SDS011;58173;52.500;5.494;2023-07-24T06:09:57;11.43;;;3.92;;
70605;SDS011;58173;52.500;5.494;2023-07-24T06:12:24;11.32;;;3.60;;
70605;SDS011;58173;52.500;5.494;2023-07-24T06:14:53;12.77;;;4.00;;
70605;SDS011;58173;52.500;5.494;2023-07-24T06:17:20;10.93;;;3.70;;
70605;SDS011;58173;52.500;5.494;2023-07-24T06:19:48;13.73;;;4.20;;
70605;SDS011;58173;52.500;5.494;2023-07-24T06:22:15;10.85;;;3.72;;
70605;SDS011;58173;52.500;5.494;2023-07-24T06:24:42;11.45;;;3.88;;
70605;SDS011;58173;52.500;5.494;2023-07-24T06:27:09;11.05;;;3.50;;
70605;SDS011;58173;52.500;5.494;2023-07-24T06:29:39;10.93;;;3.90;;
70605;SDS011;58173;52.500;5.494;2023-07-24T06:32:06;10.75;;;3.78;;
70605;SDS011;58173;52.500;5.494;2023-07-24T06:34:34;12.65;;;4.20;;
70605;SDS011;58173;52.500;5.494;2023-07-24T06:37:01;11.15;;;3.75;;
70605;SDS011;58173;52.500;5.494;2023-07-24T06:39:47;13.07;;;4.05;;
70605;SDS011;58173;52.500;5.494;2023-07-24T06:42:16;11.90;;;3.85;;
70605;SDS011;58173;52.500;5.494;2023-07-24T06:44:43;12.82;;;4.32;;
70605;SDS011;58173;52.500;5.494;2023-07-24T06:47:12;11.52;;;3.80;;
70605;SDS011;58173;52.500;5.494;2023-07-24T06:49:39;10.10;;;3.55;;
70605;SDS011;58173;52.500;5.494;2023-07-24T06:52:06;10.10;;;3.80;;
70605;SDS011;58173;52.500;5.494;2023-07-24T06:54:34;11.32;;;3.78;;
70605;SDS011;58173;52.500;5.494;2023-07-24T06:57:03;10.27;;;3.85;;
70605;SDS011;58173;52.500;5.494;2023-07-24T06:59:30;12.27;;;4.72;;
70605;SDS011;58173;52.500;5.494;2023-07-24T07:01:58;12.55;;;3.85;;
70605;SDS011;58173;52.500;5.494;2023-07-24T07:04:27;12.52;;;3.85;;
70605;SDS011;58173;52.500;5.494;2023-07-24T07:06:58;11.90;;;3.85;;
70605;SDS011;58173;52.500;5.494;2023-07-24T07:09:25;14.70;;;4.20;;
70605;SDS011;58173;52.500;5.494;2023-07-24T07:11:53;12.00;;;3.80;;
70605;SDS011;58173;52.500;5.494;2023-07-24T07:14:20;9.77;;;3.83;;
70605;SDS011;58173;52.500;5.494;2023-07-24T07:16:47;11.98;;;4.00;;
70605;SDS011;58173;52.500;5.494;2023-07-24T07:19:14;13.73;;;4.03;;
70605;SDS011;58173;52.500;5.494;2023-07-24T07:21:42;10.10;;;3.55;;
70605;SDS011;58173;52.500;5.494;2023-07-24T07:24:09;11.02;;;3.70;;
70605;SDS011;58173;52.500;5.494;2023-07-24T07:26:36;13.00;;;3.95;;
70605;SDS011;58173;52.500;5.494;2023-07-24T07:29:04;10.57;;;4.10;;
70605;SDS011;58173;52.500;5.494;2023-07-24T07:31:31;13.73;;;4.15;;
70605;SDS011;58173;52.500;5.494;2023-07-24T07:39:58;13.57;;;4.32;;
70605;SDS011;58173;52.500;5.494;2023-07-24T07:45:21;11.15;;;3.83;;
70605;SDS011;58173;52.500;5.494;2023-07-24T07:47:48;10.82;;;3.83;;
70605;SDS011;58173;52.500;5.494;2023-07-24T07:50:17;11.23;;;4.40;;
70605;SDS011;58173;52.500;5.494;2023-07-24T07:52:45;15.80;;;4.30;;
70605;SDS011;58173;52.500;5.494;2023-07-24T07:55:12;11.63;;;3.63;;
70605;SDS011;58173;52.500;5.494;2023-07-24T07:57:40;12.52;;;3.80;;
70605;SDS011;58173;52.500;5.494;2023-07-24T08:00:07;9.88;;;4.07;;
70605;SDS011;58173;52.500;5.494;2023-07-24T08:02:35;12.82;;;4.10;;
70605;SDS011;58173;52.500;5.494;2023-07-24T08:05:09;9.90;;;3.80;;
70605;SDS011;58173;52.500;5.494;2023-07-24T08:07:45;12.20;;;3.65;;
70605;SDS011;58173;52.500;5.494;2023-07-24T08:10:12;14.32;;;4.15;;
70605;SDS011;58173;52.500;5.494;2023-07-24T08:12:42;15.45;;;4.32;;
70605;SDS011;58173;52.500;5.494;2023-07-24T08:15:10;12.85;;;4.30;;
70605;SDS011;58173;52.500;5.494;2023-07-24T08:17:43;8.45;;;3.47;;
70605;SDS011;58173;52.500;5.494;2023-07-24T08:20:11;11.75;;;4.18;;
70605;SDS011;58173;52.500;5.494;2023-07-24T08:22:41;11.20;;;3.53;;
70605;SDS011;58173;52.500;5.494;2023-07-24T08:25:09;11.63;;;3.72;;
70605;SDS011;58173;52.500;5.494;2023-07-24T08:27:53;12.18;;;4.03;;
70605;SDS011;58173;52.500;5.494;2023-07-24T08:33:32;12.15;;;3.90;;
70605;SDS011;58173;52.500;5.494;2023-07-24T08:38:30;9.32;;;3.47;;
70605;SDS011;58173;52.500;5.494;2023-07-24T08:43:29;11.55;;;3.47;;
70605;SDS011;58173;52.500;5.494;2023-07-24T08:45:57;9.15;;;3.85;;
70605;SDS011;58173;52.500;5.494;2023-07-24T08:48:26;12.95;;;3.60;;
70605;SDS011;58173;52.500;5.494;2023-07-24T08:50:57;10.23;;;2.97;;
70605;SDS011;58173;52.500;5.494;2023-07-24T08:53:26;12.02;;;3.83;;
70605;SDS011;58173;52.500;5.494;2023-07-24T08:55:57;8.63;;;3.40;;
70605;SDS011;58173;52.500;5.494;2023-07-24T08:58:26;12.02;;;3.63;;
70605;SDS011;58173;52.500;5.494;2023-07-24T09:00:54;10.82;;;3.63;;
70605;SDS011;58173;52.500;5.494;2023-07-24T09:03:25;7.47;;;3.42;;
70605;SDS011;58173;52.500;5.494;2023-07-24T09:05:55;9.88;;;3.10;;
70605;SDS011;58173;52.500;5.494;2023-07-24T09:08:34;9.27;;;3.63;;
70605;SDS011;58173;52.500;5.494;2023-07-24T09:11:04;11.07;;;4.03;;
70605;SDS011;58173;52.500;5.494;2023-07-24T09:13:32;8.43;;;3.28;;
70605;SDS011;58173;52.500;5.494;2023-07-24T09:15:59;10.25;;;3.67;;
70605;SDS011;58173;52.500;5.494;2023-07-24T09:18:37;8.50;;;3.47;;
70605;SDS011;58173;52.500;5.494;2023-07-24T09:21:05;8.32;;;3.13;;
70605;SDS011;58173;52.500;5.494;2023-07-24T09:23:32;8.50;;;3.80;;
70605;SDS011;58173;52.500;5.494;2023-07-24T09:26:04;8.57;;;3.50;;
70605;SDS011;58173;52.500;5.494;2023-07-24T09:28:32;10.57;;;3.33;;
70605;SDS011;58173;52.500;5.494;2023-07-24T09:31:00;8.23;;;3.13;;
70605;SDS011;58173;52.500;5.494;2023-07-24T09:33:38;7.72;;;3.40;;
70605;SDS011;58173;52.500;5.494;2023-07-24T09:36:07;10.60;;;3.45;;
70605;SDS011;58173;52.500;5.494;2023-07-24T09:38:36;7.50;;;3.08;;
70605;SDS011;58173;52.500;5.494;2023-07-24T09:41:03;9.25;;;3.30;;
70605;SDS011;58173;52.500;5.494;2023-07-24T09:43:32;9.93;;;3.35;;
70605;SDS011;58173;52.500;5.494;2023-07-24T09:46:43;12.88;;;3.47;;
70605;SDS011;58173;52.500;5.494;2023-07-24T09:49:27;8.18;;;2.85;;
70605;SDS011;58173;52.500;5.494;2023-07-24T09:51:55;6.53;;;2.72;;
70605;SDS011;58173;52.500;5.494;2023-07-24T09:54:28;7.97;;;2.85;;
70605;SDS011;58173;52.500;5.494;2023-07-24T09:56:58;11.10;;;3.30;;
70605;SDS011;58173;52.500;5.494;2023-07-24T09:59:45;8.35;;;3.38;;
70605;SDS011;58173;52.500;5.494;2023-07-24T10:02:14;9.60;;;3.40;;
70605;SDS011;58173;52.500;5.494;2023-07-24T10:04:41;10.02;;;3.53;;
70605;SDS011;58173;52.500;5.494;2023-07-24T10:07:08;8.98;;;3.50;;
70605;SDS011;58173;52.500;5.494;2023-07-24T10:09:36;9.55;;;3.78;;
70605;SDS011;58173;52.500;5.494;2023-07-24T10:12:04;10.00;;;3.70;;
70605;SDS011;58173;52.500;5.494;2023-07-24T10:14:31;9.27;;;3.65;;
70605;SDS011;58173;52.500;5.494;2023-07-24T10:16:58;9.00;;;3.72;;
70605;SDS011;58173;52.500;5.494;2023-07-24T10:19:34;10.10;;;3.83;;
70605;SDS011;58173;52.500;5.494;2023-07-24T10:22:03;8.77;;;3.83;;
70605;SDS011;58173;52.500;5.494;2023-07-24T10:24:30;8.98;;;3.92;;
70605;SDS011;58173;52.500;5.494;2023-07-24T10:27:07;11.43;;;4.28;;
70605;SDS011;58173;52.500;5.494;2023-07-24T10:29:35;11.68;;;4.60;;
70605;SDS011;58173;52.500;5.494;2023-07-24T10:32:03;9.35;;;4.18;;
70605;SDS011;58173;52.500;5.494;2023-07-24T10:34:38;11.50;;;3.95;;
70605;SDS011;58173;52.500;5.494;2023-07-24T10:37:07;9.27;;;3.90;;
70605;SDS011;58173;52.500;5.494;2023-07-24T10:40:00;8.93;;;3.95;;
70605;SDS011;58173;52.500;5.494;2023-07-24T10:42:27;11.88;;;4.13;;
70605;SDS011;58173;52.500;5.494;2023-07-24T10:45:05;9.98;;;3.88;;
70605;SDS011;58173;52.500;5.494;2023-07-24T10:47:33;7.80;;;3.90;;
70605;SDS011;58173;52.500;5.494;2023-07-24T10:50:02;9.68;;;3.95;;
70605;SDS011;58173;52.500;5.494;2023-07-24T10:52:30;9.27;;;4.30;;
70605;SDS011;58173;52.500;5.494;2023-07-24T10:55:00;9.82;;;4.03;;
70605;SDS011;58173;52.500;5.494;2023-07-24T10:57:30;9.73;;;4.50;;
70605;SDS011;58173;52.500;5.494;2023-07-24T11:03:00;11.38;;;4.13;;
70605;SDS011;58173;52.500;5.494;2023-07-24T11:05:32;8.10;;;3.65;;
70605;SDS011;58173;52.500;5.494;2023-07-24T11:08:00;9.40;;;3.97;;
70605;SDS011;58173;52.500;5.494;2023-07-24T11:10:28;10.07;;;4.50;;
70605;SDS011;58173;52.500;5.494;2023-07-24T11:12:56;10.70;;;4.05;;
70605;SDS011;58173;52.500;5.494;2023-07-24T11:15:24;10.45;;;3.95;;
70605;SDS011;58173;52.500;5.494;2023-07-24T11:17:54;9.23;;;4.20;;
70605;SDS011;58173;52.500;5.494;2023-07-24T11:20:22;8.27;;;4.03;;
70605;SDS011;58173;52.500;5.494;2023-07-24T11:22:50;9.68;;;3.63;;
70605;SDS011;58173;52.500;5.494;2023-07-24T11:25:17;12.38;;;4.30;;
70605;SDS011;58173;52.500;5.494;2023-07-24T11:27:45;11.23;;;3.80;;
70605;SDS011;58173;52.500;5.494;2023-07-24T11:30:18;8.77;;;3.78;;
70605;SDS011;58173;52.500;5.494;2023-07-24T11:32:46;11.13;;;3.90;;
70605;SDS011;58173;52.500;5.494;2023-07-24T11:35:13;9.00;;;3.83;;
70605;SDS011;58173;52.500;5.494;2023-07-24T11:37:41;10.63;;;4.03;;
70605;SDS011;58173;52.500;5.494;2023-07-24T11:40:08;9.20;;;3.72;;
70605;SDS011;58173;52.500;5.494;2023-07-24T11:42:37;10.20;;;3.97;;
70605;SDS011;58173;52.500;5.494;2023-07-24T11:45:09;9.20;;;3.70;;
70605;SDS011;58173;52.500;5.494;2023-07-24T11:47:44;7.93;;;3.33;;
70605;SDS011;58173;52.500;5.494;2023-07-24T11:50:15;7.38;;;3.25;;
70605;SDS011;58173;52.500;5.494;2023-07-24T11:55:10;9.20;;;4.20;;
70605;SDS011;58173;52.500;5.494;2023-07-24T11:57:40;10.77;;;3.92;;
70605;SDS011;58173;52.500;5.494;2023-07-24T12:00:20;9.68;;;4.00;;
70605;SDS011;58173;52.500;5.494;2023-07-24T12:02:49;9.13;;;3.63;;
70605;SDS011;58173;52.500;5.494;2023-07-24T12:05:17;6.97;;;3.55;;
70605;SDS011;58173;52.500;5.494;2023-07-24T12:07:44;8.13;;;4.10;;
70605;SDS011;58173;52.500;5.494;2023-07-24T12:10:24;8.63;;;3.80;;
70605;SDS011;58173;52.500;5.494;2023-07-24T12:12:52;8.90;;;3.70;;
70605;SDS011;58173;52.500;5.494;2023-07-24T12:15:20;12.00;;;4.00;;
70605;SDS011;58173;52.500;5.494;2023-07-24T12:17:51;9.60;;;3.70;;
70605;SDS011;58173;52.500;5.494;2023-07-24T12:20:18;9.02;;;3.60;;
70605;SDS011;58173;52.500;5.494;2023-07-24T12:22:45;8.65;;;3.75;;
70605;SDS011;58173;52.500;5.494;2023-07-24T12:25:13;8.50;;;3.78;;
70605;SDS011;58173;52.500;5.494;2023-07-24T12:27:44;8.30;;;3.70;;
70605;SDS011;58173;52.500;5.494;2023-07-24T12:30:12;8.15;;;3.55;;
70605;SDS011;58173;52.500;5.494;2023-07-24T12:32:40;10.48;;;3.60;;
70605;SDS011;58173;52.500;5.494;2023-07-24T12:35:15;6.80;;;3.22;;
70605;SDS011;58173;52.500;5.494;2023-07-24T12:37:45;6.72;;;2.50;;
70605;SDS011;58173;52.500;5.494;2023-07-24T12:40:13;6.22;;;2.65;;
70605;SDS011;58173;52.500;5.494;2023-07-24T12:42:41;7.07;;;2.83;;
70605;SDS011;58173;52.500;5.494;2023-07-24T12:45:08;8.15;;;3.53;;
70605;SDS011;58173;52.500;5.494;2023-07-24T12:47:43;8.73;;;4.47;;
70605;SDS011;58173;52.500;5.494;2023-07-24T12:52:41;9.18;;;4.10;;
70605;SDS011;58173;52.500;5.494;2023-07-24T12:55:11;8.38;;;3.75;;
70605;SDS011;58173;52.500;5.494;2023-07-24T12:57:46;10.15;;;3.15;;
70605;SDS011;58173;52.500;5.494;2023-07-24T13:00:31;7.78;;;3.08;;
70605;SDS011;58173;52.500;5.494;2023-07-24T13:03:02;6.13;;;2.45;;
70605;SDS011;58173;52.500;5.494;2023-07-24T13:05:33;6.15;;;2.50;;
70605;SDS011;58173;52.500;5.494;2023-07-24T13:08:08;6.13;;;2.10;;
70605;SDS011;58173;52.500;5.494;2023-07-24T13:10:55;5.18;;;2.28;;
70605;SDS011;58173;52.500;5.494;2023-07-24T13:13:24;4.60;;;2.13;;
70605;SDS011;58173;52.500;5.494;2023-07-24T13:16:19;4.35;;;1.77;;
70605;SDS011;58173;52.500;5.494;2023-07-24T13:18:53;5.32;;;1.83;;
70605;SDS011;58173;52.500;5.494;2023-07-24T13:21:21;5.72;;;2.20;;
70605;SDS011;58173;52.500;5.494;2023-07-24T13:23:49;3.22;;;1.55;;
70605;SDS011;58173;52.500;5.494;2023-07-24T13:26:18;6.68;;;1.92;;
70605;SDS011;58173;52.500;5.494;2023-07-24T13:28:45;3.88;;;1.58;;
70605;SDS011;58173;52.500;5.494;2023-07-24T13:31:19;3.97;;;1.70;;
70605;SDS011;58173;52.500;5.494;2023-07-24T13:33:46;4.15;;;1.70;;
70605;SDS011;58173;52.500;5.494;2023-07-24T13:36:14;4.70;;;1.73;;
70605;SDS011;58173;52.500;5.494;2023-07-24T13:38:43;4.63;;;1.42;;
70605;SDS011;58173;52.500;5.494;2023-07-24T13:41:10;4.10;;;1.55;;
70605;SDS011;58173;52.500;5.494;2023-07-24T13:43:38;4.25;;;1.30;;
70605;SDS011;58173;52.500;5.494;2023-07-24T13:46:17;6.05;;;1.58;;
70605;SDS011;58173;52.500;5.494;2023-07-24T13:54:51;3.83;;;1.30;;
70605;SDS011;58173;52.500;5.494;2023-07-24T13:57:18;4.90;;;1.40;;
70605;SDS011;58173;52.500;5.494;2023-07-24T13:59:47;8.77;;;1.83;;
70605;SDS011;58173;52.500;5.494;2023-07-24T14:02:20;6.75;;;1.63;;
70605;SDS011;58173;52.500;5.494;2023-07-24T14:04:47;8.40;;;1.83;;
70605;SDS011;58173;52.500;5.494;2023-07-24T14:07:15;11.27;;;1.45;;
70605;SDS011;58173;52.500;5.494;2023-07-24T14:09:42;6.45;;;1.83;;
70605;SDS011;58173;52.500;5.494;2023-07-24T14:12:10;7.00;;;1.60;;
70605;SDS011;58173;52.500;5.494;2023-07-24T14:14:37;7.28;;;1.58;;
70605;SDS011;58173;52.500;5.494;2023-07-24T14:17:04;9.48;;;1.70;;
70605;SDS011;58173;52.500;5.494;2023-07-24T14:19:32;3.63;;;1.15;;
70605;SDS011;58173;52.500;5.494;2023-07-24T14:22:00;6.78;;;1.42;;
70605;SDS011;58173;52.500;5.494;2023-07-24T14:24:28;6.28;;;1.20;;
70605;SDS011;58173;52.500;5.494;2023-07-24T14:27:04;2.25;;;0.95;;
70605;SDS011;58173;52.500;5.494;2023-07-24T14:29:32;3.75;;;1.25;;
70605;SDS011;58173;52.500;5.494;2023-07-24T14:31:59;5.38;;;1.13;;
70605;SDS011;58173;52.500;5.494;2023-07-24T14:34:27;3.83;;;1.25;;
70605;SDS011;58173;52.500;5.494;2023-07-24T14:36:55;4.82;;;1.10;;
70605;SDS011;58173;52.500;5.494;2023-07-24T14:39:22;4.80;;;1.20;;
70605;SDS011;58173;52.500;5.494;2023-07-24T14:41:49;6.47;;;1.23;;
70605;SDS011;58173;52.500;5.494;2023-07-24T14:44:20;5.63;;;1.20;;
70605;SDS011;58173;52.500;5.494;2023-07-24T14:46:48;5.10;;;1.20;;
70605;SDS011;58173;52.500;5.494;2023-07-24T14:49:16;4.00;;;1.02;;
70605;SDS011;58173;52.500;5.494;2023-07-24T14:51:43;3.35;;;1.25;;
70605;SDS011;58173;52.500;5.494;2023-07-24T14:54:12;7.70;;;1.50;;
70605;SDS011;58173;52.500;5.494;2023-07-24T14:56:39;2.72;;;1.20;;
70605;SDS011;58173;52.500;5.494;2023-07-24T14:59:24;4.22;;;1.00;;
70605;SDS011;58173;52.500;5.494;2023-07-24T15:01:51;5.25;;;0.95;;
70605;SDS011;58173;52.500;5.494;2023-07-24T15:04:18;3.28;;;1.00;;
70605;SDS011;58173;52.500;5.494;2023-07-24T15:06:45;3.95;;;1.02;;
70605;SDS011;58173;52.500;5.494;2023-07-24T15:09:13;5.35;;;1.10;;
70605;SDS011;58173;52.500;5.494;2023-07-24T15:11:40;4.00;;;1.10;;
70605;SDS011;58173;52.500;5.494;2023-07-24T15:14:10;2.42;;;0.80;;
70605;SDS011;58173;52.500;5.494;2023-07-24T15:16:39;5.40;;;0.98;;
70605;SDS011;58173;52.500;5.494;2023-07-24T15:19:07;4.07;;;1.08;;
70605;SDS011;58173;52.500;5.494;2023-07-24T15:21:34;4.40;;;1.08;;
70605;SDS011;58173;52.500;5.494;2023-07-24T15:24:01;2.47;;;0.70;;
70605;SDS011;58173;52.500;5.494;2023-07-24T15:26:28;3.67;;;0.90;;
70605;SDS011;58173;52.500;5.494;2023-07-24T15:28:56;4.05;;;0.90;;
70605;SDS011;58173;52.500;5.494;2023-07-24T15:31:23;2.10;;;0.90;;
70605;SDS011;58173;52.500;5.494;2023-07-24T15:33:50;2.17;;;0.82;;
70605;SDS011;58173;52.500;5.494;2023-07-24T15:36:18;1.40;;;0.68;;
70605;SDS011;58173;52.500;5.494;2023-07-24T15:38:45;1.70;;;0.70;;
70605;SDS011;58173;52.500;5.494;2023-07-24T15:41:12;1.58;;;0.63;;
70605;SDS011;58173;52.500;5.494;2023-07-24T15:43:39;2.78;;;1.15;;